Latest Weather Observations for Maitland Airport

IDN60801

Issued at 1:53 pm EDT Thursday 20 January 2022 (issued every 10 minutes, with the page automatically refreshed every 10 minutes)

About weather observations | Map of weather stations | Latest weather observations for NSW | Other Formats
Station Details ID: 061428 Name: MAITLAND AIRPORT AWS Lat: -32.70 Lon: 151.49 Height: 27.5 m
Data from the previous 72 hours. | See also: Recent months at Maitland Airport
Date/Time
EDT
Temp
°C
App
Temp
°C
Dew
Point
°C
Rel
Hum
%
Delta-T
°C
Wind Press
QNH
hPa
Press
MSL
hPa
Rain since
9am
mm
Dir  Spd
km/h
Gust
km/h
Spd
kts
Gust
kts
20/01:30pm 25.0 22.0 15.9 57 5.5 SE 26 37 14 20 1025.6 1025.5 0.0
20/01:00pm 23.1 19.0 14.9 60 4.9 SE 30 41 16 22 1025.9 1025.8 0.0
20/12:30pm 24.1 20.0 14.8 56 5.5 SSE 30 41 16 22 1026.1 1026.0 0.0
20/12:10pm 25.3 20.5 14.1 50 6.6 SE 32 46 17 25 1025.9 1025.8 0.0
20/12:05pm 25.6 21.5 13.8 48 7.0 SE 28 46 15 25 1025.9 1025.8 0.0
20/12:00pm 24.7 20.4 13.3 49 6.6 SE 28 43 15 23 1025.9 1025.8 0.0
20/11:51am 24.7 19.4 13.0 48 6.8 SE 33 46 18 25 1025.9 1025.8 0.0
20/11:30am 25.2 20.5 13.1 47 7.0 ESE 30 46 16 25 1025.8 1025.7 0.0
20/11:00am 24.5 19.4 13.1 49 6.6 SE 32 52 17 28 1025.7 1025.6 0.0
20/10:52am 24.2 19.4 12.8 49 6.6 SE 30 52 16 28 1025.6 1025.5 0.0
20/10:30am 23.7 18.8 13.8 53 5.8 SE 32 43 17 23 1025.5 1025.4 0.0
20/10:00am 22.8 17.8 14.1 58 5.1 SE 33 46 18 25 1025.4 1025.3 0.0
20/09:30am 22.7 19.3 15.8 65 4.2 SE 28 39 15 21 1025.0 1024.9 0.0
20/09:00am 22.0 18.8 15.4 66 3.9 SSE 26 39 14 21 1024.8 1024.7 16.6
20/08:30am 22.0 19.7 15.6 67 3.8 SSE 22 35 12 19 1024.5 1024.4 16.6
20/08:00am 21.5 19.7 15.6 69 3.5 SSE 19 26 10 14 1024.2 1024.1 16.6
20/07:30am 20.9 19.1 15.4 71 3.3 SSE 19 26 10 14 1023.8 1023.7 16.6
20/07:00am 20.7 19.3 15.5 72 3.1 SSE 17 24 9 13 1023.7 1023.6 16.6
20/06:30am 20.5 18.4 15.3 72 3.1 SSE 20 26 11 14 1023.4 1023.3 16.6
20/06:00am 20.7 19.3 15.5 72 3.1 SSE 17 24 9 13 1022.9 1022.8 16.6
20/05:30am 20.3 19.3 16.5 79 2.3 SSE 17 22 9 12 1022.5 1022.4 16.6
20/05:00am 19.4 19.5 16.4 83 1.8 S 11 17 6 9 1022.2 1022.1 16.6
20/04:30am 18.6 19.1 16.6 88 1.2 S 9 11 5 6 1022.0 1021.9 16.6
20/04:00am 18.4 19.3 16.6 89 1.1 S 7 9 4 5 1022.0 1021.9 16.6
20/03:30am 17.8 19.3 16.7 93 0.7 S 4 6 2 3 1022.1 1022.0 16.6
20/03:00am 17.8 20.1 16.8 94 0.6 CALM 0 0 0 0 1022.1 1022.0 16.6
20/02:30am 18.0 20.4 17.0 94 0.6 CALM 0 6 0 3 1022.2 1022.1 16.6
20/02:00am 18.2 19.0 17.2 94 0.6 S 9 11 5 6 1022.3 1022.2 16.6
20/01:30am 18.5 19.4 17.5 94 0.6 S 9 11 5 6 1022.5 1022.4 16.6
20/01:00am 18.7 18.8 17.4 92 0.8 SSE 13 20 7 11 1022.5 1022.4 16.4
20/12:30am 19.8 17.5 16.6 82 1.9 SSE 24 39 13 21 1022.7 1022.6 16.4
20/12:00am 20.2 19.7 16.0 77 2.5 S 13 19 7 10 1022.6 1022.5 16.4
 
Date/Time
EDT
Temp
°C
App
Temp
°C
Dew
Point
°C
Rel
Hum
%
Delta-T
°C
Wind Press
QNH
hPa
Press
MSL
hPa
Rain since
9am
mm
Dir  Spd
km/h
Gust
km/h
Spd
kts
Gust
kts
19/11:30pm 19.4 19.6 14.6 74 2.8 S 7 9 4 5 1022.4 1022.3 16.4
19/11:00pm 20.3 19.0 14.7 70 3.3 SSE 15 24 8 13 1022.2 1022.1 16.4
19/10:30pm 20.4 19.1 14.7 70 3.3 SSE 15 22 8 12 1022.1 1022.0 16.4
19/10:00pm 20.7 19.1 15.0 70 3.3 SSE 17 32 9 17 1022.1 1022.0 16.4
19/09:30pm 21.0 19.4 15.1 69 3.5 SE 17 28 9 15 1021.8 1021.7 16.4
19/09:00pm 20.9 19.4 15.2 70 3.4 SSE 17 22 9 12 1021.4 1021.3 16.4
19/08:30pm 21.0 19.4 15.1 69 3.5 SSE 17 28 9 15 1021.1 1021.0 16.4
19/08:00pm 21.1 19.0 15.2 69 3.5 SSE 20 30 11 16 1020.9 1020.8 16.4
19/07:30pm 21.6 19.1 15.2 67 3.8 SSE 22 33 12 18 1020.5 1020.4 16.4
19/07:00pm 21.9 18.8 15.7 68 3.7 SE 26 43 14 23 1020.1 1020.0 16.4
19/06:30pm 22.1 19.1 15.9 68 3.7 SE 26 37 14 20 1019.8 1019.7 16.4
19/06:16pm 22.1 19.0 16.6 71 3.3 SE 28 48 15 26 1019.6 1019.5 16.4
19/06:00pm 22.1 19.8 16.6 71 3.3 SE 24 35 13 19 1019.5 1019.4 16.4
19/05:30pm 21.7 22.1 18.1 80 2.2 SSE 13 28 7 15 1019.4 1019.3 16.4
19/05:00pm 20.9 23.0 19.0 89 1.2 S 6 11 3 6 1019.5 1019.4 16.4
19/04:30pm 20.4 22.1 18.5 89 1.2 S 7 11 4 6 1019.4 1019.3 16.4
19/04:00pm 20.9 21.8 18.5 86 1.5 S 11 15 6 8 1019.5 1019.4 16.4
19/03:30pm 21.0 22.0 18.6 86 1.5 SSE 11 17 6 9 1019.5 1019.4 16.2
19/03:00pm 21.2 20.6 18.4 84 1.7 SSE 19 30 10 16 1019.6 1019.5 15.8
19/02:30pm 22.1 20.9 18.5 80 2.3 SSE 22 37 12 20 1019.3 1019.2 15.8
19/02:00pm 21.2 20.4 18.4 84 1.7 SSE 20 32 11 17 1019.0 1018.9 15.8
19/01:30pm 21.6 21.1 19.2 86 1.5 SSE 20 35 11 19 1018.9 1018.8 15.8
19/01:00pm 20.7 20.6 19.5 93 0.8 SSE 19 32 10 17 1018.7 1018.6 15.8
19/12:51pm 19.9 19.2 18.6 92 0.8 S 20 26 11 14 1018.7 1018.6 15.8
19/12:30pm 20.3 20.9 19.5 95 0.5 SSE 15 22 8 12 1018.7 1018.6 14.6
19/12:00pm 20.0 20.3 19.5 97 0.3 S 17 26 9 14 1018.6 1018.5 12.6
19/11:59am 20.0 20.3 19.5 97 0.3 S 17 26 9 14 1018.6 1018.5 12.4
19/11:30am 20.2 20.5 19.7 97 0.3 S 17 20 9 11 1018.4 1018.3 9.4
19/11:19am 20.2 20.9 19.7 97 0.3 SSW 15 19 8 10 1018.3 1018.2 7.6
19/11:15am 20.2 20.8 19.5 96 0.4 SSW 15 20 8 11 1018.2 1018.1 7.0
19/11:00am 20.2 20.5 19.5 96 0.4 SSW 17 20 9 11 1018.2 1018.1 5.8
19/10:57am 20.1 20.3 19.4 96 0.4 SSW 17 22 9 12 1018.1 1018.0 5.6
19/10:31am 19.9 20.3 19.1 95 0.5 S 15 24 8 13 1017.8 1017.7 3.8
19/10:30am 19.9 20.3 19.1 95 0.5 S 15 20 8 11 1017.8 1017.7 3.8
19/10:00am 19.9 19.9 18.9 94 0.6 SSW 17 24 9 13 1017.4 1017.3 1.4
19/09:46am 20.0 19.6 19.0 94 0.6 SSW 19 30 10 16 1017.5 1017.4 0.8
19/09:30am 20.1 21.0 19.3 95 0.5 S 13 19 7 10 1017.5 1017.4 0.6
19/09:10am 20.1 21.1 19.4 96 0.4 S 13 19 7 10 1017.1 1017.0 0.2
19/09:00am 20.1 20.7 19.4 96 0.4 S 15 20 8 11 1017.1 1017.0 17.8
19/08:54am 20.0 20.5 19.2 95 0.5 S 15 20 8 11 1017.0 1016.9 17.6
19/08:52am 20.1 21.0 19.3 95 0.5 S 13 19 7 10 1017.0 1016.9 17.2
19/08:30am 20.3 20.6 19.5 95 0.5 S 17 28 9 15 1016.7 1016.6 16.4
19/08:00am 19.9 20.8 19.2 96 0.4 SSW 13 24 7 13 1016.0 1015.9 16.4
19/07:41am 19.8 20.2 19.1 96 0.4 SSW 15 19 8 10 1015.7 1015.6 16.4
19/07:30am 19.8 20.2 19.1 96 0.4 S 15 26 8 14 1015.6 1015.5 16.2
19/07:00am 19.9 20.1 19.4 97 0.3 S 17 24 9 13 1015.2 1015.1 15.6
19/06:52am 19.9 20.1 19.4 97 0.3 S 17 24 9 13 1015.2 1015.1 15.4
19/06:30am 20.0 20.6 19.5 97 0.3 SSW 15 20 8 11 1014.9 1014.8 14.0
19/06:29am 20.0 20.6 19.5 97 0.3 SSW 15 20 8 11 1014.9 1014.8 14.0
19/06:26am 20.1 20.7 19.4 96 0.4 SSW 15 20 8 11 1014.9 1014.8 13.8
19/06:24am 20.1 20.3 19.4 96 0.4 SSW 17 26 9 14 1014.8 1014.7 13.6
19/06:00am 20.2 20.8 19.5 96 0.4 S 15 20 8 11 1014.2 1014.1 13.0
19/05:30am 20.3 21.5 19.8 97 0.3 S 13 19 7 10 1013.8 1013.7 12.4
19/05:24am 20.3 21.5 19.8 97 0.3 S 13 20 7 11 1013.7 1013.6 12.4
19/05:08am 20.3 21.5 19.8 97 0.3 SSE 13 19 7 10 1013.4 1013.3 12.0
19/05:00am 20.4 21.1 19.7 96 0.4 SSE 15 20 8 11 1013.3 1013.2 11.2
19/04:30am 20.8 22.2 20.3 97 0.3 SSE 13 20 7 11 1012.9 1012.8 8.4
19/04:00am 20.7 22.8 20.2 97 0.3 SE 9 13 5 7 1012.7 1012.6 7.4
19/03:30am 20.9 23.4 20.2 96 0.4 SE 7 11 4 6 1012.7 1012.6 6.4
19/03:00am 21.0 22.8 20.3 96 0.5 SE 11 15 6 8 1012.8 1012.7 6.0
19/02:30am 21.0 22.9 20.5 97 0.3 SSE 11 15 6 8 1012.9 1012.8 6.0
19/02:00am 21.0 23.2 20.3 96 0.5 SSE 9 13 5 7 1013.2 1013.1 6.0
19/01:30am 21.2 23.1 20.5 96 0.5 SE 11 17 6 9 1013.3 1013.2 6.0
19/01:24am 21.2 23.1 20.5 96 0.5 SE 11 13 6 7 1013.4 1013.3 6.0
19/01:07am 21.3 22.8 20.5 95 0.5 SE 13 22 7 12 1013.5 1013.4 6.0
19/01:00am 21.4 22.6 20.6 95 0.5 ESE 15 22 8 12 1013.5 1013.4 5.8
19/12:30am 21.7 22.3 20.3 92 0.9 SSE 17 20 9 11 1013.3 1013.2 5.8
19/12:02am 22.1 23.2 20.4 90 1.1 SSE 15 19 8 10 1013.4 1013.3 5.6
19/12:00am 22.1 23.2 20.4 90 1.1 SSE 15 20 8 11 1013.4 1013.3 5.6
 
Date/Time
EDT
Temp
°C
App
Temp
°C
Dew
Point
°C
Rel
Hum
%
Delta-T
°C
Wind Press
QNH
hPa
Press
MSL
hPa
Rain since
9am
mm
Dir  Spd
km/h
Gust
km/h
Spd
kts
Gust
kts
18/11:30pm 22.0 24.7 20.6 92 0.9 SSE 7 11 4 6 1013.3 1013.2 5.6
18/11:00pm 22.0 25.2 20.5 91 1.0 SE 4 6 2 3 1013.3 1013.2 5.6
18/10:30pm 22.2 24.9 20.3 89 1.2 SE 6 7 3 4 1013.3 1013.2 5.6
18/10:00pm 22.2 24.7 20.3 89 1.2 SE 7 9 4 5 1013.2 1013.1 5.6
18/09:30pm 22.2 24.4 20.5 90 1.1 SE 9 11 5 6 1013.1 1013.0 5.6
18/09:00pm 22.3 23.7 20.4 89 1.2 SE 13 15 7 8 1012.8 1012.7 5.6
18/08:30pm 22.4 24.3 20.5 89 1.2 SE 11 15 6 8 1012.6 1012.5 5.6
18/08:00pm 22.5 23.6 20.4 88 1.4 SSE 15 20 8 11 1012.4 1012.3 5.6
18/07:30pm 22.4 24.7 20.7 90 1.1 SSE 9 13 5 7 1012.0 1011.9 5.6
18/07:00pm 22.5 25.6 21.1 92 0.9 SE 6 9 3 5 1011.5 1011.4 5.6
18/06:30pm 22.5 24.4 20.6 89 1.2 SE 11 19 6 10 1011.5 1011.4 5.6
18/06:00pm 22.9 23.6 20.4 86 1.6 ESE 17 22 9 12 1011.8 1011.7 5.4
18/05:30pm 23.3 24.8 20.6 85 1.8 SE 13 20 7 11 1011.3 1011.2 5.4
18/05:00pm 23.3 24.8 21.2 88 1.4 SE 15 20 8 11 1011.6 1011.5 5.4
18/04:30pm 23.2 25.2 22.2 94 0.7 ESE 15 20 8 11 1011.3 1011.2 5.4
18/04:00pm 23.2 24.1 21.5 90 1.1 SE 19 24 10 13 1011.5 1011.4 2.8
18/03:30pm 24.9 26.2 21.6 82 2.2 E 17 22 9 12 1011.5 1011.4 0.2
18/03:00pm 26.6 29.9 21.4 73 3.5 WSW 6 9 3 5 1011.4 1011.3 0.2
18/02:30pm 26.6 30.5 21.1 72 3.6 NNW 2 7 1 4 1011.6 1011.5 0.2
18/02:00pm 26.1 29.3 21.3 75 3.2 NNW 6 9 3 5 1011.7 1011.6 0.2
18/01:30pm 25.8 29.2 21.7 78 2.7 NW 6 7 3 4 1012.0 1011.9 0.2
18/01:00pm 26.2 28.3 21.0 73 3.4 S 11 15 6 8 1012.3 1012.2 0.0
18/12:30pm 26.5 28.4 21.3 73 3.5 SE 13 17 7 9 1012.2 1012.1 0.0
18/12:00pm 26.4 27.7 20.9 72 3.6 SSE 15 20 8 11 1012.5 1012.4 0.0
18/11:30am 26.3 28.3 21.5 75 3.2 SSE 13 20 7 11 1012.6 1012.5 0.0
18/11:00am 25.8 27.5 21.0 75 3.2 SSE 13 17 7 9 1012.7 1012.6 0.0
18/10:30am 25.9 27.0 21.3 76 3.0 SSE 17 24 9 13 1012.6 1012.5 0.0
18/10:00am 26.0 26.6 21.4 76 3.1 SSE 20 26 11 14 1012.3 1012.2 0.0
18/09:30am 26.6 28.3 21.6 74 3.3 SSE 15 26 8 14 1011.8 1011.7 0.0
18/09:00am 26.7 28.6 22.1 76 3.1 SSE 15 22 8 12 1011.6 1011.5 1.0
18/08:30am 25.8 29.6 22.7 83 2.1 WSW 7 13 4 7 1011.3 1011.2 1.0
18/08:00am 24.2 28.0 22.8 92 0.9 SSW 7 9 4 5 1011.1 1011.0 1.0
18/07:30am 23.8 28.2 23.5 98 0.2 SSW 6 7 3 4 1010.6 1010.5 1.0
18/07:00am 23.0 26.8 22.7 98 0.2 SSW 7 9 4 5 1010.3 1010.2 1.0
18/06:35am 22.6 26.2 22.3 98 0.2 SSW 7 9 4 5 1009.9 1009.8 1.0
18/06:30am 22.5 26.2 22.2 98 0.2 SSW 6 9 3 5 1009.8 1009.7 1.0
18/06:08am 22.2 26.9 21.9 98 0.2 CALM 0 0 0 0 1009.5 1009.4 1.0
18/06:00am 22.1 26.7 21.8 98 0.2 CALM 0 0 0 0 1009.3 1009.2 1.0
18/05:38am 22.3 27.0 22.0 98 0.2 CALM 0 0 0 0 1009.3 1009.2 1.0
18/05:37am 22.3 27.0 22.0 98 0.2 CALM 0 0 0 0 1009.3 1009.2 1.0
18/05:31am 22.3 27.0 22.0 98 0.2 CALM 0 0 0 0 1009.3 1009.2 1.0
18/05:30am 22.3 27.0 22.0 98 0.2 CALM 0 0 0 0 1009.3 1009.2 1.0
18/05:29am 22.4 27.2 22.1 98 0.2 CALM 0 0 0 0 1009.3 1009.2 1.0
18/05:27am 22.4 27.2 22.1 98 0.2 CALM 0 0 0 0 1009.3 1009.2 1.0
18/05:23am 22.4 27.2 22.1 98 0.2 CALM 0 0 0 0 1009.3 1009.2 1.0
18/05:21am 22.4 27.2 22.1 98 0.2 CALM 0 0 0 0 1009.3 1009.2 1.0
18/05:18am 22.3 27.0 22.0 98 0.2 CALM 0 0 0 0 1009.3 1009.2 1.0
18/05:17am 22.3 27.0 22.0 98 0.2 CALM 0 0 0 0 1009.3 1009.2 1.0
18/05:12am 22.3 27.0 22.0 98 0.2 CALM 0 0 0 0 1009.3 1009.2 1.0
18/05:10am 22.3 27.0 22.0 98 0.2 CALM 0 0 0 0 1009.3 1009.2 1.0
18/05:07am 22.2 26.9 21.9 98 0.2 CALM 0 0 0 0 1009.3 1009.2 1.0
18/05:06am 22.2 26.9 21.9 98 0.2 CALM 0 0 0 0 1009.3 1009.2 1.0
18/05:00am 22.4 27.2 22.1 98 0.2 CALM 0 0 0 0 1009.4 1009.3 1.0
18/04:49am 22.4 27.2 22.1 98 0.2 CALM 0 0 0 0 1009.3 1009.2 1.0
18/04:40am 22.4 27.2 22.1 98 0.2 CALM 0 0 0 0 1009.3 1009.2 1.0
18/04:30am 22.4 27.2 22.1 98 0.2 CALM 0 0 0 0 1009.3 1009.2 1.0
18/04:00am 22.9 28.0 22.6 98 0.2 CALM 0 0 0 0 1009.5 1009.4 1.0
18/03:30am 23.3 27.2 23.0 98 0.2 SSW 7 9 4 5 1009.8 1009.7 1.0
18/03:00am 22.7 27.6 22.4 98 0.2 CALM 0 0 0 0 1009.9 1009.8 1.0
18/02:30am 22.7 27.5 22.2 97 0.3 CALM 0 0 0 0 1010.0 1009.9 1.0
18/02:00am 23.1 28.2 22.6 97 0.3 CALM 0 0 0 0 1010.3 1010.2 1.0
18/01:30am 23.3 28.5 22.8 97 0.3 CALM 0 0 0 0 1010.3 1010.2 1.0
18/01:00am 23.2 28.3 22.7 97 0.3 CALM 0 0 0 0 1010.6 1010.5 1.0
18/12:30am 23.5 27.6 23.0 97 0.3 SSW 6 9 3 5 1010.9 1010.8 1.0
18/12:00am 23.5 28.8 23.0 97 0.3 CALM 0 0 0 0 1010.9 1010.8 1.0
 
Date/Time
EDT
Temp
°C
App
Temp
°C
Dew
Point
°C
Rel
Hum
%
Delta-T
°C
Wind Press
QNH
hPa
Press
MSL
hPa
Rain since
9am
mm
Dir  Spd
km/h
Gust
km/h
Spd
kts
Gust
kts
17/11:30pm 23.7 28.7 23.2 97 0.3 SSW 2 6 1 3 1011.0 1010.9 1.0
17/11:00pm 23.6 27.1 22.9 96 0.5 SSW 9 11 5 6 1011.2 1011.1 1.0
17/10:30pm 23.7 27.8 23.0 96 0.5 SSW 6 7 3 4 1011.0 1010.9 1.0
17/10:00pm 23.7 27.8 23.0 96 0.5 SSW 6 7 3 4 1010.8 1010.7 1.0
17/09:30pm 24.0 29.3 23.1 95 0.6 CALM 0 0 0 0 1010.2 1010.1 1.0
17/09:00pm 24.3 29.2 23.1 93 0.8 SSE 2 6 1 3 1010.2 1010.1 1.0
17/08:30pm 24.5 28.6 22.9 91 1.1 SSE 6 7 3 4 1010.0 1009.9 0.8
17/08:00pm 25.1 28.6 22.8 87 1.6 SSE 9 11 5 6 1009.8 1009.7 0.2
17/07:30pm 26.9 29.3 22.3 76 3.1 SSE 13 17 7 9 1009.3 1009.2 0.0
17/07:00pm 27.5 29.9 22.2 73 3.6 SSE 13 17 7 9 1008.7 1008.6 0.0
17/06:30pm 28.3 30.7 22.3 70 4.1 SSE 13 19 7 10 1008.1 1008.0 0.0
17/06:00pm 29.2 30.5 22.4 66 4.6 ESE 19 24 10 13 1007.5 1007.4 0.0
17/05:30pm 30.2 31.5 22.4 63 5.3 E 19 26 10 14 1007.4 1007.3 0.0
17/05:00pm 31.2 32.6 21.9 57 6.3 E 17 24 9 13 1007.4 1007.3 0.0
17/04:30pm 32.1 34.3 23.3 59 6.1 ESE 17 24 9 13 1007.6 1007.5 0.0
17/04:00pm 31.8 34.3 22.5 58 6.4 E 13 24 7 13 1007.6 1007.5 0.0
17/03:30pm 32.9 34.7 20.4 47 8.3 NNE 11 19 6 10 1007.7 1007.6 0.0
17/03:00pm 32.5 34.9 19.7 46 8.5 NE 6 13 3 7 1008.0 1007.9 0.0
17/02:30pm 31.6 33.6 19.9 50 7.7 NNE 9 17 5 9 1008.1 1008.0 0.0
17/02:00pm 31.1 33.6 21.0 55 6.8 ESE 9 15 5 8 1008.4 1008.3 0.0

Other formats

Comma delimited format used in spreadsheet applications
http://www.bom.gov.au/fwo/IDN60801/IDN60801.94650.axf

JavaScript Object Notation format (JSON) in row-major order
http://www.bom.gov.au/fwo/IDN60801/IDN60801.94650.json

Data quality

Most of these data are generated automatically and are frequently updated. Quality checks on data are not normally performed. It is possible for incorrect values to appear. Refer to information at About Latest Weather Observations and please check the disclaimer before using these data.